sensor_id;sensor_type;location;lat;lon;timestamp;P1;durP1;ratioP1;P2;durP2;ratioP2
3767;SDS011;1899;49.966;7.106;2023-07-13T00:01:17;4.33;;;2.37;;
3767;SDS011;1899;49.966;7.106;2023-07-13T00:03:43;2.77;;;2.23;;
3767;SDS011;1899;49.966;7.106;2023-07-13T00:06:08;3.13;;;1.93;;
3767;SDS011;1899;49.966;7.106;2023-07-13T00:08:34;2.97;;;1.80;;
3767;SDS011;1899;49.966;7.106;2023-07-13T00:11:00;4.10;;;2.47;;
3767;SDS011;1899;49.966;7.106;2023-07-13T00:13:25;2.80;;;2.07;;
3767;SDS011;1899;49.966;7.106;2023-07-13T00:15:50;2.17;;;1.70;;
3767;SDS011;1899;49.966;7.106;2023-07-13T00:18:15;4.53;;;1.80;;
3767;SDS011;1899;49.966;7.106;2023-07-13T00:20:41;3.30;;;1.90;;
3767;SDS011;1899;49.966;7.106;2023-07-13T00:23:06;2.20;;;1.80;;
3767;SDS011;1899;49.966;7.106;2023-07-13T00:25:32;2.63;;;1.83;;
3767;SDS011;1899;49.966;7.106;2023-07-13T00:27:57;3.23;;;2.10;;
3767;SDS011;1899;49.966;7.106;2023-07-13T00:30:22;2.20;;;1.90;;
3767;SDS011;1899;49.966;7.106;2023-07-13T00:32:48;6.27;;;2.33;;
3767;SDS011;1899;49.966;7.106;2023-07-13T00:35:13;3.00;;;1.80;;
3767;SDS011;1899;49.966;7.106;2023-07-13T00:37:39;3.50;;;2.23;;
3767;SDS011;1899;49.966;7.106;2023-07-13T00:40:05;2.13;;;1.93;;
3767;SDS011;1899;49.966;7.106;2023-07-13T00:42:30;3.50;;;1.67;;
3767;SDS011;1899;49.966;7.106;2023-07-13T00:45:07;3.47;;;2.17;;
3767;SDS011;1899;49.966;7.106;2023-07-13T00:47:50;3.23;;;2.30;;
3767;SDS011;1899;49.966;7.106;2023-07-13T00:50:15;5.63;;;2.40;;
3767;SDS011;1899;49.966;7.106;2023-07-13T00:52:42;3.27;;;2.00;;
3767;SDS011;1899;49.966;7.106;2023-07-13T00:55:08;2.50;;;1.93;;
3767;SDS011;1899;49.966;7.106;2023-07-13T00:57:34;3.80;;;2.17;;
3767;SDS011;1899;49.966;7.106;2023-07-13T01:00:00;3.03;;;1.80;;
3767;SDS011;1899;49.966;7.106;2023-07-13T01:02:32;3.03;;;2.40;;
3767;SDS011;1899;49.966;7.106;2023-07-13T01:04:57;3.20;;;1.90;;
3767;SDS011;1899;49.966;7.106;2023-07-13T01:07:22;3.20;;;2.33;;
3767;SDS011;1899;49.966;7.106;2023-07-13T01:09:48;3.00;;;2.07;;
3767;SDS011;1899;49.966;7.106;2023-07-13T01:12:13;2.70;;;1.80;;
3767;SDS011;1899;49.966;7.106;2023-07-13T01:14:39;2.43;;;1.73;;
3767;SDS011;1899;49.966;7.106;2023-07-13T01:17:04;8.63;;;2.10;;
3767;SDS011;1899;49.966;7.106;2023-07-13T01:19:43;2.13;;;1.70;;
3767;SDS011;1899;49.966;7.106;2023-07-13T01:22:10;2.30;;;1.50;;
3767;SDS011;1899;49.966;7.106;2023-07-13T01:24:36;4.40;;;2.10;;
3767;SDS011;1899;49.966;7.106;2023-07-13T01:27:02;2.80;;;2.00;;
3767;SDS011;1899;49.966;7.106;2023-07-13T01:29:27;3.23;;;2.20;;
3767;SDS011;1899;49.966;7.106;2023-07-13T01:31:53;4.90;;;1.90;;
3767;SDS011;1899;49.966;7.106;2023-07-13T01:34:18;2.63;;;1.97;;
3767;SDS011;1899;49.966;7.106;2023-07-13T01:36:43;2.33;;;2.07;;
3767;SDS011;1899;49.966;7.106;2023-07-13T01:39:08;2.80;;;1.90;;
3767;SDS011;1899;49.966;7.106;2023-07-13T01:41:34;1.73;;;1.63;;
3767;SDS011;1899;49.966;7.106;2023-07-13T01:43:59;2.30;;;1.73;;
3767;SDS011;1899;49.966;7.106;2023-07-13T01:46:24;2.33;;;1.80;;
3767;SDS011;1899;49.966;7.106;2023-07-13T01:48:50;6.80;;;2.30;;
3767;SDS011;1899;49.966;7.106;2023-07-13T01:51:16;2.40;;;2.10;;
3767;SDS011;1899;49.966;7.106;2023-07-13T01:53:41;10.73;;;2.40;;
3767;SDS011;1899;49.966;7.106;2023-07-13T01:56:06;3.73;;;1.97;;
3767;SDS011;1899;49.966;7.106;2023-07-13T01:58:31;3.63;;;1.90;;
3767;SDS011;1899;49.966;7.106;2023-07-13T02:00:56;2.90;;;2.30;;
3767;SDS011;1899;49.966;7.106;2023-07-13T02:03:22;4.20;;;2.50;;
3767;SDS011;1899;49.966;7.106;2023-07-13T02:05:47;2.80;;;1.50;;
3767;SDS011;1899;49.966;7.106;2023-07-13T02:08:12;2.60;;;2.10;;
3767;SDS011;1899;49.966;7.106;2023-07-13T02:10:37;6.00;;;2.20;;
3767;SDS011;1899;49.966;7.106;2023-07-13T02:13:05;4.83;;;2.50;;
3767;SDS011;1899;49.966;7.106;2023-07-13T02:15:30;4.53;;;2.27;;
3767;SDS011;1899;49.966;7.106;2023-07-13T02:17:55;2.63;;;2.23;;
3767;SDS011;1899;49.966;7.106;2023-07-13T02:20:21;2.77;;;2.10;;
3767;SDS011;1899;49.966;7.106;2023-07-13T02:22:47;3.93;;;2.30;;
3767;SDS011;1899;49.966;7.106;2023-07-13T02:25:12;2.80;;;2.10;;
3767;SDS011;1899;49.966;7.106;2023-07-13T02:27:37;2.73;;;2.10;;
3767;SDS011;1899;49.966;7.106;2023-07-13T02:30:03;2.80;;;2.03;;
3767;SDS011;1899;49.966;7.106;2023-07-13T02:32:28;2.50;;;1.97;;
3767;SDS011;1899;49.966;7.106;2023-07-13T02:34:53;2.73;;;2.47;;
3767;SDS011;1899;49.966;7.106;2023-07-13T02:37:19;10.00;;;2.73;;
3767;SDS011;1899;49.966;7.106;2023-07-13T02:39:44;3.53;;;1.77;;
3767;SDS011;1899;49.966;7.106;2023-07-13T02:42:09;2.90;;;2.13;;
3767;SDS011;1899;49.966;7.106;2023-07-13T02:44:34;3.77;;;2.17;;
3767;SDS011;1899;49.966;7.106;2023-07-13T02:46:59;3.50;;;2.40;;
3767;SDS011;1899;49.966;7.106;2023-07-13T02:49:25;2.70;;;2.30;;
3767;SDS011;1899;49.966;7.106;2023-07-13T02:51:50;11.83;;;5.00;;
3767;SDS011;1899;49.966;7.106;2023-07-13T02:54:16;4.10;;;2.43;;
3767;SDS011;1899;49.966;7.106;2023-07-13T02:56:41;3.90;;;2.23;;
3767;SDS011;1899;49.966;7.106;2023-07-13T02:59:06;3.80;;;1.77;;
3767;SDS011;1899;49.966;7.106;2023-07-13T03:01:31;4.00;;;2.30;;
3767;SDS011;1899;49.966;7.106;2023-07-13T03:04:00;3.27;;;2.23;;
3767;SDS011;1899;49.966;7.106;2023-07-13T03:06:25;2.03;;;1.83;;
3767;SDS011;1899;49.966;7.106;2023-07-13T03:08:50;4.53;;;2.20;;
3767;SDS011;1899;49.966;7.106;2023-07-13T03:11:19;3.83;;;2.20;;
3767;SDS011;1899;49.966;7.106;2023-07-13T03:13:45;4.13;;;2.13;;
3767;SDS011;1899;49.966;7.106;2023-07-13T03:16:10;3.43;;;2.53;;
3767;SDS011;1899;49.966;7.106;2023-07-13T03:18:36;5.23;;;2.30;;
3767;SDS011;1899;49.966;7.106;2023-07-13T03:21:02;2.73;;;2.37;;
3767;SDS011;1899;49.966;7.106;2023-07-13T03:23:27;3.13;;;1.87;;
3767;SDS011;1899;49.966;7.106;2023-07-13T03:26:02;2.80;;;1.90;;
3767;SDS011;1899;49.966;7.106;2023-07-13T03:28:28;2.97;;;2.23;;
3767;SDS011;1899;49.966;7.106;2023-07-13T03:31:00;1.93;;;1.70;;
3767;SDS011;1899;49.966;7.106;2023-07-13T03:33:26;2.23;;;2.00;;
3767;SDS011;1899;49.966;7.106;2023-07-13T03:35:51;3.87;;;2.43;;
3767;SDS011;1899;49.966;7.106;2023-07-13T03:38:16;2.63;;;2.13;;
3767;SDS011;1899;49.966;7.106;2023-07-13T03:40:42;3.53;;;2.20;;
3767;SDS011;1899;49.966;7.106;2023-07-13T03:43:07;4.27;;;2.33;;
3767;SDS011;1899;49.966;7.106;2023-07-13T03:45:32;2.73;;;2.17;;
3767;SDS011;1899;49.966;7.106;2023-07-13T03:47:57;2.17;;;1.97;;
3767;SDS011;1899;49.966;7.106;2023-07-13T03:50:22;2.60;;;2.40;;
3767;SDS011;1899;49.966;7.106;2023-07-13T03:52:48;3.80;;;2.17;;
3767;SDS011;1899;49.966;7.106;2023-07-13T03:55:13;2.50;;;2.00;;
3767;SDS011;1899;49.966;7.106;2023-07-13T03:57:38;7.53;;;2.70;;
3767;SDS011;1899;49.966;7.106;2023-07-13T04:00:04;3.50;;;2.13;;
3767;SDS011;1899;49.966;7.106;2023-07-13T04:02:30;2.70;;;2.50;;
3767;SDS011;1899;49.966;7.106;2023-07-13T04:04:56;2.30;;;1.90;;
3767;SDS011;1899;49.966;7.106;2023-07-13T04:07:21;3.33;;;2.53;;
3767;SDS011;1899;49.966;7.106;2023-07-13T04:09:46;4.30;;;2.57;;
3767;SDS011;1899;49.966;7.106;2023-07-13T04:12:12;5.40;;;2.00;;
3767;SDS011;1899;49.966;7.106;2023-07-13T04:14:37;3.23;;;1.90;;
3767;SDS011;1899;49.966;7.106;2023-07-13T04:17:02;4.13;;;1.77;;
3767;SDS011;1899;49.966;7.106;2023-07-13T04:19:28;3.30;;;2.30;;
3767;SDS011;1899;49.966;7.106;2023-07-13T04:21:53;4.60;;;2.40;;
3767;SDS011;1899;49.966;7.106;2023-07-13T04:24:18;3.17;;;2.23;;
3767;SDS011;1899;49.966;7.106;2023-07-13T04:26:44;3.40;;;2.33;;
3767;SDS011;1899;49.966;7.106;2023-07-13T04:29:09;5.77;;;2.83;;
3767;SDS011;1899;49.966;7.106;2023-07-13T04:31:34;2.43;;;2.23;;
3767;SDS011;1899;49.966;7.106;2023-07-13T04:34:00;3.13;;;2.77;;
3767;SDS011;1899;49.966;7.106;2023-07-13T04:36:25;3.50;;;2.73;;
3767;SDS011;1899;49.966;7.106;2023-07-13T04:38:52;4.47;;;2.13;;
3767;SDS011;1899;49.966;7.106;2023-07-13T04:41:17;3.47;;;2.90;;
3767;SDS011;1899;49.966;7.106;2023-07-13T04:43:42;3.00;;;2.47;;
3767;SDS011;1899;49.966;7.106;2023-07-13T04:46:10;3.73;;;2.50;;
3767;SDS011;1899;49.966;7.106;2023-07-13T04:48:36;2.93;;;2.50;;
3767;SDS011;1899;49.966;7.106;2023-07-13T04:51:02;3.07;;;2.10;;
3767;SDS011;1899;49.966;7.106;2023-07-13T04:53:28;2.60;;;2.17;;
3767;SDS011;1899;49.966;7.106;2023-07-13T04:55:53;3.43;;;2.20;;
3767;SDS011;1899;49.966;7.106;2023-07-13T04:58:18;4.30;;;2.43;;
3767;SDS011;1899;49.966;7.106;2023-07-13T05:00:44;4.37;;;2.57;;
3767;SDS011;1899;49.966;7.106;2023-07-13T05:03:09;4.97;;;3.13;;
3767;SDS011;1899;49.966;7.106;2023-07-13T05:05:34;6.30;;;2.63;;
3767;SDS011;1899;49.966;7.106;2023-07-13T05:08:00;4.17;;;2.50;;
3767;SDS011;1899;49.966;7.106;2023-07-13T05:10:25;2.40;;;2.20;;
3767;SDS011;1899;49.966;7.106;2023-07-13T05:12:50;4.80;;;1.50;;
3767;SDS011;1899;49.966;7.106;2023-07-13T05:15:16;2.97;;;2.53;;
3767;SDS011;1899;49.966;7.106;2023-07-13T05:17:45;3.73;;;2.50;;
3767;SDS011;1899;49.966;7.106;2023-07-13T05:20:11;3.00;;;2.50;;
3767;SDS011;1899;49.966;7.106;2023-07-13T05:22:36;3.83;;;1.97;;
3767;SDS011;1899;49.966;7.106;2023-07-13T05:25:02;4.90;;;2.10;;
3767;SDS011;1899;49.966;7.106;2023-07-13T05:27:28;3.23;;;2.40;;
3767;SDS011;1899;49.966;7.106;2023-07-13T05:29:53;3.57;;;2.80;;
3767;SDS011;1899;49.966;7.106;2023-07-13T05:32:18;2.00;;;1.90;;
3767;SDS011;1899;49.966;7.106;2023-07-13T05:34:43;4.30;;;2.13;;
3767;SDS011;1899;49.966;7.106;2023-07-13T05:37:09;3.80;;;2.10;;
3767;SDS011;1899;49.966;7.106;2023-07-13T05:39:34;3.70;;;2.30;;
3767;SDS011;1899;49.966;7.106;2023-07-13T05:41:59;6.23;;;2.10;;
3767;SDS011;1899;49.966;7.106;2023-07-13T05:44:25;3.20;;;2.57;;
3767;SDS011;1899;49.966;7.106;2023-07-13T05:46:50;2.83;;;2.53;;
3767;SDS011;1899;49.966;7.106;2023-07-13T05:49:15;2.77;;;2.10;;
3767;SDS011;1899;49.966;7.106;2023-07-13T05:51:40;3.97;;;2.50;;
3767;SDS011;1899;49.966;7.106;2023-07-13T05:54:06;3.37;;;3.00;;
3767;SDS011;1899;49.966;7.106;2023-07-13T05:56:31;2.60;;;2.10;;
3767;SDS011;1899;49.966;7.106;2023-07-13T05:58:56;2.50;;;2.30;;
3767;SDS011;1899;49.966;7.106;2023-07-13T06:01:21;2.93;;;1.90;;
3767;SDS011;1899;49.966;7.106;2023-07-13T06:03:48;5.77;;;2.30;;
3767;SDS011;1899;49.966;7.106;2023-07-13T06:06:14;2.27;;;1.80;;
3767;SDS011;1899;49.966;7.106;2023-07-13T06:08:40;3.67;;;2.07;;
3767;SDS011;1899;49.966;7.106;2023-07-13T06:11:06;2.80;;;1.90;;
3767;SDS011;1899;49.966;7.106;2023-07-13T06:13:32;2.20;;;2.00;;
3767;SDS011;1899;49.966;7.106;2023-07-13T06:15:58;3.40;;;1.60;;
3767;SDS011;1899;49.966;7.106;2023-07-13T06:18:23;2.90;;;1.93;;
3767;SDS011;1899;49.966;7.106;2023-07-13T06:20:48;7.27;;;2.60;;
3767;SDS011;1899;49.966;7.106;2023-07-13T06:23:14;2.17;;;1.90;;
3767;SDS011;1899;49.966;7.106;2023-07-13T06:25:39;2.50;;;2.27;;
3767;SDS011;1899;49.966;7.106;2023-07-13T06:28:05;2.70;;;2.00;;
3767;SDS011;1899;49.966;7.106;2023-07-13T06:30:30;2.20;;;1.80;;
3767;SDS011;1899;49.966;7.106;2023-07-13T06:32:56;6.10;;;1.93;;
3767;SDS011;1899;49.966;7.106;2023-07-13T06:35:22;6.63;;;2.40;;
3767;SDS011;1899;49.966;7.106;2023-07-13T06:37:47;3.43;;;1.57;;
3767;SDS011;1899;49.966;7.106;2023-07-13T06:40:12;1.97;;;1.57;;
3767;SDS011;1899;49.966;7.106;2023-07-13T06:42:38;2.70;;;1.63;;
3767;SDS011;1899;49.966;7.106;2023-07-13T06:45:03;6.57;;;2.00;;
3767;SDS011;1899;49.966;7.106;2023-07-13T06:47:29;6.07;;;2.00;;
3767;SDS011;1899;49.966;7.106;2023-07-13T06:49:54;3.43;;;1.70;;
3767;SDS011;1899;49.966;7.106;2023-07-13T06:52:19;3.60;;;1.63;;
3767;SDS011;1899;49.966;7.106;2023-07-13T06:54:44;2.37;;;1.60;;
3767;SDS011;1899;49.966;7.106;2023-07-13T06:57:10;2.37;;;1.30;;
3767;SDS011;1899;49.966;7.106;2023-07-13T06:59:35;4.10;;;1.70;;
3767;SDS011;1899;49.966;7.106;2023-07-13T07:02:00;4.20;;;1.63;;
3767;SDS011;1899;49.966;7.106;2023-07-13T07:04:25;4.00;;;2.00;;
3767;SDS011;1899;49.966;7.106;2023-07-13T07:06:51;1.97;;;1.43;;
3767;SDS011;1899;49.966;7.106;2023-07-13T07:09:17;3.13;;;1.20;;
3767;SDS011;1899;49.966;7.106;2023-07-13T07:11:42;4.40;;;1.53;;
3767;SDS011;1899;49.966;7.106;2023-07-13T07:14:08;3.53;;;1.70;;
3767;SDS011;1899;49.966;7.106;2023-07-13T07:16:34;4.70;;;1.40;;
3767;SDS011;1899;49.966;7.106;2023-07-13T07:18:59;8.17;;;1.70;;
3767;SDS011;1899;49.966;7.106;2023-07-13T07:21:24;1.97;;;1.20;;
3767;SDS011;1899;49.966;7.106;2023-07-13T07:23:51;3.30;;;1.50;;
3767;SDS011;1899;49.966;7.106;2023-07-13T07:26:16;2.80;;;1.43;;
3767;SDS011;1899;49.966;7.106;2023-07-13T07:28:41;3.33;;;1.60;;
3767;SDS011;1899;49.966;7.106;2023-07-13T07:31:07;3.70;;;1.50;;
3767;SDS011;1899;49.966;7.106;2023-07-13T07:33:33;4.13;;;1.50;;
3767;SDS011;1899;49.966;7.106;2023-07-13T07:35:59;1.40;;;1.30;;
3767;SDS011;1899;49.966;7.106;2023-07-13T07:38:25;2.13;;;1.40;;
3767;SDS011;1899;49.966;7.106;2023-07-13T07:40:51;2.00;;;1.43;;
3767;SDS011;1899;49.966;7.106;2023-07-13T07:43:16;3.10;;;1.13;;
3767;SDS011;1899;49.966;7.106;2023-07-13T07:45:41;2.40;;;1.23;;
3767;SDS011;1899;49.966;7.106;2023-07-13T07:48:07;2.90;;;1.07;;
3767;SDS011;1899;49.966;7.106;2023-07-13T07:50:34;1.90;;;1.07;;
3767;SDS011;1899;49.966;7.106;2023-07-13T07:53:00;1.73;;;1.10;;
3767;SDS011;1899;49.966;7.106;2023-07-13T07:55:27;2.33;;;1.30;;
3767;SDS011;1899;49.966;7.106;2023-07-13T07:57:52;2.30;;;1.20;;
3767;SDS011;1899;49.966;7.106;2023-07-13T08:00:18;2.83;;;1.00;;
3767;SDS011;1899;49.966;7.106;2023-07-13T08:02:44;2.00;;;1.40;;
3767;SDS011;1899;49.966;7.106;2023-07-13T08:05:09;3.17;;;1.30;;
3767;SDS011;1899;49.966;7.106;2023-07-13T08:07:35;4.73;;;1.20;;
3767;SDS011;1899;49.966;7.106;2023-07-13T08:10:00;5.70;;;1.63;;
3767;SDS011;1899;49.966;7.106;2023-07-13T08:12:25;3.53;;;1.50;;
3767;SDS011;1899;49.966;7.106;2023-07-13T08:14:50;1.97;;;1.10;;
3767;SDS011;1899;49.966;7.106;2023-07-13T08:17:19;1.97;;;1.17;;
3767;SDS011;1899;49.966;7.106;2023-07-13T08:19:50;4.10;;;1.83;;
3767;SDS011;1899;49.966;7.106;2023-07-13T08:22:15;3.97;;;0.90;;
3767;SDS011;1899;49.966;7.106;2023-07-13T08:24:41;1.60;;;1.03;;
3767;SDS011;1899;49.966;7.106;2023-07-13T08:27:07;2.80;;;1.40;;
3767;SDS011;1899;49.966;7.106;2023-07-13T08:29:33;2.17;;;1.30;;
3767;SDS011;1899;49.966;7.106;2023-07-13T08:31:58;2.17;;;1.00;;
3767;SDS011;1899;49.966;7.106;2023-07-13T08:34:24;5.47;;;0.90;;
3767;SDS011;1899;49.966;7.106;2023-07-13T08:36:49;2.57;;;0.97;;
3767;SDS011;1899;49.966;7.106;2023-07-13T08:39:14;3.23;;;1.10;;
3767;SDS011;1899;49.966;7.106;2023-07-13T08:41:40;2.50;;;1.03;;
3767;SDS011;1899;49.966;7.106;2023-07-13T08:44:06;1.47;;;0.93;;
3767;SDS011;1899;49.966;7.106;2023-07-13T08:46:36;1.20;;;1.10;;
3767;SDS011;1899;49.966;7.106;2023-07-13T08:49:12;2.30;;;1.03;;
3767;SDS011;1899;49.966;7.106;2023-07-13T08:54:04;1.70;;;1.07;;
3767;SDS011;1899;49.966;7.106;2023-07-13T08:56:31;1.60;;;1.00;;
3767;SDS011;1899;49.966;7.106;2023-07-13T08:58:58;2.17;;;0.93;;
3767;SDS011;1899;49.966;7.106;2023-07-13T09:06:31;3.57;;;1.10;;
3767;SDS011;1899;49.966;7.106;2023-07-13T09:09:01;4.07;;;0.90;;
3767;SDS011;1899;49.966;7.106;2023-07-13T09:16:51;1.13;;;0.90;;
3767;SDS011;1899;49.966;7.106;2023-07-13T09:19:20;6.50;;;1.13;;
3767;SDS011;1899;49.966;7.106;2023-07-13T09:21:47;4.63;;;1.93;;
3767;SDS011;1899;49.966;7.106;2023-07-13T09:24:29;1.73;;;0.90;;
3767;SDS011;1899;49.966;7.106;2023-07-13T09:26:56;2.20;;;0.77;;
3767;SDS011;1899;49.966;7.106;2023-07-13T09:29:26;1.30;;;0.80;;
3767;SDS011;1899;49.966;7.106;2023-07-13T09:31:53;1.83;;;0.83;;
3767;SDS011;1899;49.966;7.106;2023-07-13T09:34:19;2.30;;;1.10;;
3767;SDS011;1899;49.966;7.106;2023-07-13T09:36:44;4.60;;;1.10;;
3767;SDS011;1899;49.966;7.106;2023-07-13T09:39:27;2.60;;;1.20;;
3767;SDS011;1899;49.966;7.106;2023-07-13T09:41:54;2.17;;;1.97;;
3767;SDS011;1899;49.966;7.106;2023-07-13T09:47:16;1.63;;;1.03;;
3767;SDS011;1899;49.966;7.106;2023-07-13T09:49:42;2.87;;;1.13;;
3767;SDS011;1899;49.966;7.106;2023-07-13T09:52:11;1.57;;;1.20;;
3767;SDS011;1899;49.966;7.106;2023-07-13T09:54:36;1.10;;;0.80;;
3767;SDS011;1899;49.966;7.106;2023-07-13T09:57:03;2.60;;;0.93;;
3767;SDS011;1899;49.966;7.106;2023-07-13T09:59:50;1.83;;;0.90;;
3767;SDS011;1899;49.966;7.106;2023-07-13T10:02:30;2.17;;;0.77;;
3767;SDS011;1899;49.966;7.106;2023-07-13T10:05:02;2.30;;;0.90;;
3767;SDS011;1899;49.966;7.106;2023-07-13T10:07:28;1.33;;;0.93;;
3767;SDS011;1899;49.966;7.106;2023-07-13T10:09:54;1.57;;;1.10;;
3767;SDS011;1899;49.966;7.106;2023-07-13T10:12:20;2.10;;;1.00;;
3767;SDS011;1899;49.966;7.106;2023-07-13T10:14:48;4.83;;;0.90;;
3767;SDS011;1899;49.966;7.106;2023-07-13T10:17:15;1.27;;;0.80;;
3767;SDS011;1899;49.966;7.106;2023-07-13T10:19:44;1.93;;;0.93;;
3767;SDS011;1899;49.966;7.106;2023-07-13T10:24:41;1.20;;;0.90;;
3767;SDS011;1899;49.966;7.106;2023-07-13T10:27:11;2.83;;;1.30;;
3767;SDS011;1899;49.966;7.106;2023-07-13T10:29:38;1.40;;;1.10;;
3767;SDS011;1899;49.966;7.106;2023-07-13T10:32:09;2.50;;;0.87;;
3767;SDS011;1899;49.966;7.106;2023-07-13T10:34:35;1.83;;;0.90;;
3767;SDS011;1899;49.966;7.106;2023-07-13T10:37:01;1.30;;;0.73;;
3767;SDS011;1899;49.966;7.106;2023-07-13T10:39:27;1.50;;;0.90;;
3767;SDS011;1899;49.966;7.106;2023-07-13T10:41:59;2.57;;;0.90;;
3767;SDS011;1899;49.966;7.106;2023-07-13T10:44:26;1.80;;;1.10;;
3767;SDS011;1899;49.966;7.106;2023-07-13T10:46:54;2.60;;;0.80;;
3767;SDS011;1899;49.966;7.106;2023-07-13T10:49:20;2.03;;;1.10;;
3767;SDS011;1899;49.966;7.106;2023-07-13T10:51:47;1.20;;;0.90;;
3767;SDS011;1899;49.966;7.106;2023-07-13T10:54:20;2.07;;;0.90;;
3767;SDS011;1899;49.966;7.106;2023-07-13T10:57:33;1.93;;;1.83;;
3767;SDS011;1899;49.966;7.106;2023-07-13T10:59:34;1.77;;;0.90;;
3767;SDS011;1899;49.966;7.106;2023-07-13T11:04:31;1.57;;;0.90;;
3767;SDS011;1899;49.966;7.106;2023-07-13T11:07:10;4.80;;;0.80;;
3767;SDS011;1899;49.966;7.106;2023-07-13T11:09:38;1.60;;;0.90;;
3767;SDS011;1899;49.966;7.106;2023-07-13T11:12:08;0.90;;;0.70;;
3767;SDS011;1899;49.966;7.106;2023-07-13T11:22:45;2.30;;;1.10;;
3767;SDS011;1899;49.966;7.106;2023-07-13T11:25:31;1.73;;;0.90;;
3767;SDS011;1899;49.966;7.106;2023-07-13T11:28:05;1.90;;;0.93;;
3767;SDS011;1899;49.966;7.106;2023-07-13T11:30:38;1.63;;;1.10;;
3767;SDS011;1899;49.966;7.106;2023-07-13T11:33:18;1.70;;;1.40;;
3767;SDS011;1899;49.966;7.106;2023-07-13T11:35:46;1.57;;;0.80;;
3767;SDS011;1899;49.966;7.106;2023-07-13T11:38:16;1.53;;;1.00;;
3767;SDS011;1899;49.966;7.106;2023-07-13T11:40:43;1.10;;;1.00;;
3767;SDS011;1899;49.966;7.106;2023-07-13T11:43:11;1.53;;;1.17;;
3767;SDS011;1899;49.966;7.106;2023-07-13T11:45:37;2.00;;;0.80;;
3767;SDS011;1899;49.966;7.106;2023-07-13T11:48:02;1.40;;;1.17;;
3767;SDS011;1899;49.966;7.106;2023-07-13T11:50:28;1.43;;;1.10;;
3767;SDS011;1899;49.966;7.106;2023-07-13T11:52:53;3.27;;;1.03;;
3767;SDS011;1899;49.966;7.106;2023-07-13T11:55:21;2.50;;;1.00;;
3767;SDS011;1899;49.966;7.106;2023-07-13T11:57:57;2.03;;;0.80;;
3767;SDS011;1899;49.966;7.106;2023-07-13T12:00:25;1.93;;;1.00;;
3767;SDS011;1899;49.966;7.106;2023-07-13T12:02:52;1.47;;;0.80;;
3767;SDS011;1899;49.966;7.106;2023-07-13T12:05:18;2.20;;;1.13;;
3767;SDS011;1899;49.966;7.106;2023-07-13T12:07:45;1.43;;;1.00;;
3767;SDS011;1899;49.966;7.106;2023-07-13T12:10:22;1.70;;;1.03;;
3767;SDS011;1899;49.966;7.106;2023-07-13T12:12:58;1.10;;;0.90;;
3767;SDS011;1899;49.966;7.106;2023-07-13T12:15:27;1.57;;;0.97;;
3767;SDS011;1899;49.966;7.106;2023-07-13T12:17:53;2.80;;;0.97;;
3767;SDS011;1899;49.966;7.106;2023-07-13T12:20:25;3.83;;;1.30;;
3767;SDS011;1899;49.966;7.106;2023-07-13T12:22:50;2.07;;;0.93;;
3767;SDS011;1899;49.966;7.106;2023-07-13T12:25:16;1.40;;;0.90;;
3767;SDS011;1899;49.966;7.106;2023-07-13T12:27:43;1.80;;;1.10;;
3767;SDS011;1899;49.966;7.106;2023-07-13T12:32:55;2.03;;;0.80;;
3767;SDS011;1899;49.966;7.106;2023-07-13T12:35:20;4.07;;;1.27;;
3767;SDS011;1899;49.966;7.106;2023-07-13T12:37:46;1.90;;;0.97;;
3767;SDS011;1899;49.966;7.106;2023-07-13T12:40:18;1.83;;;1.00;;
3767;SDS011;1899;49.966;7.106;2023-07-13T12:42:45;2.50;;;1.13;;
3767;SDS011;1899;49.966;7.106;2023-07-13T12:45:17;1.17;;;1.00;;
3767;SDS011;1899;49.966;7.106;2023-07-13T12:47:43;2.17;;;1.20;;
3767;SDS011;1899;49.966;7.106;2023-07-13T12:50:12;2.10;;;1.20;;
3767;SDS011;1899;49.966;7.106;2023-07-13T12:52:38;2.40;;;0.97;;
3767;SDS011;1899;49.966;7.106;2023-07-13T12:55:07;1.00;;;0.60;;
3767;SDS011;1899;49.966;7.106;2023-07-13T12:57:40;1.43;;;0.80;;
3767;SDS011;1899;49.966;7.106;2023-07-13T13:00:18;1.20;;;0.83;;
3767;SDS011;1899;49.966;7.106;2023-07-13T13:02:44;2.10;;;0.77;;
3767;SDS011;1899;49.966;7.106;2023-07-13T13:05:12;1.93;;;0.83;;
3767;SDS011;1899;49.966;7.106;2023-07-13T13:07:39;2.30;;;0.97;;
3767;SDS011;1899;49.966;7.106;2023-07-13T13:10:10;1.60;;;1.07;;
3767;SDS011;1899;49.966;7.106;2023-07-13T13:12:36;1.43;;;1.10;;
3767;SDS011;1899;49.966;7.106;2023-07-13T13:15:01;1.80;;;0.87;;
3767;SDS011;1899;49.966;7.106;2023-07-13T13:17:27;2.70;;;1.07;;
3767;SDS011;1899;49.966;7.106;2023-07-13T13:19:54;1.40;;;0.93;;
3767;SDS011;1899;49.966;7.106;2023-07-13T13:22:19;3.20;;;1.03;;
3767;SDS011;1899;49.966;7.106;2023-07-13T13:24:45;1.90;;;0.90;;
3767;SDS011;1899;49.966;7.106;2023-07-13T13:27:14;1.73;;;0.93;;
3767;SDS011;1899;49.966;7.106;2023-07-13T13:29:40;1.57;;;1.00;;
3767;SDS011;1899;49.966;7.106;2023-07-13T13:32:09;2.70;;;0.90;;
3767;SDS011;1899;49.966;7.106;2023-07-13T13:34:34;2.30;;;1.07;;
3767;SDS011;1899;49.966;7.106;2023-07-13T13:36:59;1.57;;;1.00;;
3767;SDS011;1899;49.966;7.106;2023-07-13T13:39:34;2.17;;;1.00;;
3767;SDS011;1899;49.966;7.106;2023-07-13T13:41:59;3.47;;;1.20;;
3767;SDS011;1899;49.966;7.106;2023-07-13T13:44:25;1.10;;;0.90;;
3767;SDS011;1899;49.966;7.106;2023-07-13T13:46:52;1.30;;;0.90;;
3767;SDS011;1899;49.966;7.106;2023-07-13T13:49:19;1.10;;;0.83;;
3767;SDS011;1899;49.966;7.106;2023-07-13T13:51:46;3.20;;;1.37;;
3767;SDS011;1899;49.966;7.106;2023-07-13T13:54:12;1.40;;;0.90;;
3767;SDS011;1899;49.966;7.106;2023-07-13T13:56:37;3.10;;;0.97;;
3767;SDS011;1899;49.966;7.106;2023-07-13T13:59:03;1.30;;;0.87;;
3767;SDS011;1899;49.966;7.106;2023-07-13T14:01:29;1.20;;;0.83;;
3767;SDS011;1899;49.966;7.106;2023-07-13T14:03:55;1.33;;;0.87;;
3767;SDS011;1899;49.966;7.106;2023-07-13T14:06:21;2.80;;;1.10;;
3767;SDS011;1899;49.966;7.106;2023-07-13T14:08:46;1.67;;;0.93;;
3767;SDS011;1899;49.966;7.106;2023-07-13T14:11:16;3.63;;;1.00;;
3767;SDS011;1899;49.966;7.106;2023-07-13T14:13:43;4.03;;;1.00;;
3767;SDS011;1899;49.966;7.106;2023-07-13T14:16:12;3.70;;;1.07;;
3767;SDS011;1899;49.966;7.106;2023-07-13T14:18:38;2.43;;;1.00;;
3767;SDS011;1899;49.966;7.106;2023-07-13T14:21:08;1.13;;;0.80;;
3767;SDS011;1899;49.966;7.106;2023-07-13T14:23:35;1.27;;;0.70;;
3767;SDS011;1899;49.966;7.106;2023-07-13T14:26:01;3.93;;;0.87;;
3767;SDS011;1899;49.966;7.106;2023-07-13T14:28:26;1.40;;;0.93;;
3767;SDS011;1899;49.966;7.106;2023-07-13T14:30:54;1.10;;;0.90;;
3767;SDS011;1899;49.966;7.106;2023-07-13T14:33:19;1.60;;;1.10;;
3767;SDS011;1899;49.966;7.106;2023-07-13T14:35:45;1.47;;;0.90;;
3767;SDS011;1899;49.966;7.106;2023-07-13T14:38:15;3.40;;;1.30;;
3767;SDS011;1899;49.966;7.106;2023-07-13T14:40:41;2.13;;;0.70;;
3767;SDS011;1899;49.966;7.106;2023-07-13T14:43:10;2.20;;;1.13;;
3767;SDS011;1899;49.966;7.106;2023-07-13T14:45:37;1.73;;;0.90;;
3767;SDS011;1899;49.966;7.106;2023-07-13T14:48:08;1.37;;;0.90;;
3767;SDS011;1899;49.966;7.106;2023-07-13T14:50:34;2.60;;;0.90;;
3767;SDS011;1899;49.966;7.106;2023-07-13T14:53:00;2.60;;;1.00;;
3767;SDS011;1899;49.966;7.106;2023-07-13T14:55:25;1.30;;;1.00;;
3767;SDS011;1899;49.966;7.106;2023-07-13T14:57:51;1.70;;;1.10;;
3767;SDS011;1899;49.966;7.106;2023-07-13T15:00:17;2.27;;;0.93;;
3767;SDS011;1899;49.966;7.106;2023-07-13T15:02:44;1.00;;;0.73;;
3767;SDS011;1899;49.966;7.106;2023-07-13T15:05:17;1.10;;;0.80;;
3767;SDS011;1899;49.966;7.106;2023-07-13T15:07:43;1.67;;;0.80;;
3767;SDS011;1899;49.966;7.106;2023-07-13T15:10:16;1.20;;;0.83;;
3767;SDS011;1899;49.966;7.106;2023-07-13T15:12:41;1.87;;;0.80;;
3767;SDS011;1899;49.966;7.106;2023-07-13T15:15:06;2.50;;;1.00;;
3767;SDS011;1899;49.966;7.106;2023-07-13T15:17:35;1.30;;;0.80;;
3767;SDS011;1899;49.966;7.106;2023-07-13T15:20:02;1.77;;;0.80;;
3767;SDS011;1899;49.966;7.106;2023-07-13T15:22:30;1.67;;;0.90;;
3767;SDS011;1899;49.966;7.106;2023-07-13T15:24:56;3.17;;;1.03;;
3767;SDS011;1899;49.966;7.106;2023-07-13T15:27:21;1.40;;;0.90;;
3767;SDS011;1899;49.966;7.106;2023-07-13T15:29:46;1.40;;;0.90;;
3767;SDS011;1899;49.966;7.106;2023-07-13T15:32:13;2.70;;;1.03;;
3767;SDS011;1899;49.966;7.106;2023-07-13T15:34:39;1.43;;;1.10;;
3767;SDS011;1899;49.966;7.106;2023-07-13T15:37:08;1.13;;;0.90;;
3767;SDS011;1899;49.966;7.106;2023-07-13T15:39:36;1.90;;;1.10;;
3767;SDS011;1899;49.966;7.106;2023-07-13T15:42:02;2.33;;;0.90;;
3767;SDS011;1899;49.966;7.106;2023-07-13T15:44:28;1.50;;;1.00;;